sensor_id;sensor_type;location;lat;lon;timestamp;P1;durP1;ratioP1;P2;durP2;ratioP2
11037;SDS011;5572;49.540;11.932;2023-07-20T00:00:39;14.13;;;13.07;;
11037;SDS011;5572;49.540;11.932;2023-07-20T00:03:13;15.90;;;14.60;;
11037;SDS011;5572;49.540;11.932;2023-07-20T00:05:44;14.33;;;13.17;;
11037;SDS011;5572;49.540;11.932;2023-07-20T00:08:10;15.00;;;13.77;;
11037;SDS011;5572;49.540;11.932;2023-07-20T00:10:37;14.23;;;13.20;;
11037;SDS011;5572;49.540;11.932;2023-07-20T00:13:05;15.53;;;14.27;;
11037;SDS011;5572;49.540;11.932;2023-07-20T00:15:31;13.90;;;12.87;;
11037;SDS011;5572;49.540;11.932;2023-07-20T00:17:58;15.50;;;14.27;;
11037;SDS011;5572;49.540;11.932;2023-07-20T00:20:24;15.53;;;14.30;;
11037;SDS011;5572;49.540;11.932;2023-07-20T00:22:51;15.63;;;14.40;;
11037;SDS011;5572;49.540;11.932;2023-07-20T00:25:19;14.73;;;13.53;;
11037;SDS011;5572;49.540;11.932;2023-07-20T00:27:46;13.60;;;12.47;;
11037;SDS011;5572;49.540;11.932;2023-07-20T00:30:14;15.50;;;14.23;;
11037;SDS011;5572;49.540;11.932;2023-07-20T00:32:41;14.30;;;13.13;;
11037;SDS011;5572;49.540;11.932;2023-07-20T00:35:08;15.57;;;14.33;;
11037;SDS011;5572;49.540;11.932;2023-07-20T00:37:35;13.90;;;12.87;;
11037;SDS011;5572;49.540;11.932;2023-07-20T00:40:02;15.20;;;14.07;;
11037;SDS011;5572;49.540;11.932;2023-07-20T00:42:30;13.67;;;12.53;;
11037;SDS011;5572;49.540;11.932;2023-07-20T00:44:56;15.27;;;14.03;;
11037;SDS011;5572;49.540;11.932;2023-07-20T00:47:24;14.27;;;13.10;;
11037;SDS011;5572;49.540;11.932;2023-07-20T00:49:51;14.73;;;13.57;;
11037;SDS011;5572;49.540;11.932;2023-07-20T00:52:19;18.30;;;16.87;;
11037;SDS011;5572;49.540;11.932;2023-07-20T00:54:47;15.03;;;13.80;;
11037;SDS011;5572;49.540;11.932;2023-07-20T00:57:14;14.97;;;13.73;;
11037;SDS011;5572;49.540;11.932;2023-07-20T00:59:41;15.60;;;14.37;;
11037;SDS011;5572;49.540;11.932;2023-07-20T01:02:08;15.53;;;14.27;;
11037;SDS011;5572;49.540;11.932;2023-07-20T01:04:36;14.40;;;13.23;;
11037;SDS011;5572;49.540;11.932;2023-07-20T01:07:06;13.57;;;12.53;;
11037;SDS011;5572;49.540;11.932;2023-07-20T01:09:39;15.07;;;13.87;;
11037;SDS011;5572;49.540;11.932;2023-07-20T01:12:12;16.53;;;15.20;;
11037;SDS011;5572;49.540;11.932;2023-07-20T01:14:44;15.23;;;14.00;;
11037;SDS011;5572;49.540;11.932;2023-07-20T01:17:11;15.80;;;14.53;;
11037;SDS011;5572;49.540;11.932;2023-07-20T01:19:40;14.93;;;13.73;;
11037;SDS011;5572;49.540;11.932;2023-07-20T01:22:09;15.80;;;14.50;;
11037;SDS011;5572;49.540;11.932;2023-07-20T01:24:51;14.63;;;13.47;;
11037;SDS011;5572;49.540;11.932;2023-07-20T01:27:36;14.30;;;13.17;;
11037;SDS011;5572;49.540;11.932;2023-07-20T01:30:38;17.80;;;16.37;;
11037;SDS011;5572;49.540;11.932;2023-07-20T01:33:15;15.00;;;13.80;;
11037;SDS011;5572;49.540;11.932;2023-07-20T01:35:46;14.50;;;13.33;;
11037;SDS011;5572;49.540;11.932;2023-07-20T01:38:19;15.30;;;14.07;;
11037;SDS011;5572;49.540;11.932;2023-07-20T01:40:46;14.47;;;13.30;;
11037;SDS011;5572;49.540;11.932;2023-07-20T01:43:13;17.60;;;16.17;;
11037;SDS011;5572;49.540;11.932;2023-07-20T01:45:39;14.73;;;13.57;;
11037;SDS011;5572;49.540;11.932;2023-07-20T01:48:06;15.77;;;14.50;;
11037;SDS011;5572;49.540;11.932;2023-07-20T01:50:34;15.27;;;14.07;;
11037;SDS011;5572;49.540;11.932;2023-07-20T01:53:00;14.43;;;13.30;;
11037;SDS011;5572;49.540;11.932;2023-07-20T01:55:27;14.17;;;13.13;;
11037;SDS011;5572;49.540;11.932;2023-07-20T01:57:54;13.90;;;12.87;;
11037;SDS011;5572;49.540;11.932;2023-07-20T02:00:21;15.27;;;14.13;;
11037;SDS011;5572;49.540;11.932;2023-07-20T02:02:49;12.50;;;11.57;;
11037;SDS011;5572;49.540;11.932;2023-07-20T02:05:16;14.17;;;13.10;;
11037;SDS011;5572;49.540;11.932;2023-07-20T02:07:44;14.93;;;13.80;;
11037;SDS011;5572;49.540;11.932;2023-07-20T02:10:11;14.97;;;13.83;;
11037;SDS011;5572;49.540;11.932;2023-07-20T02:12:37;14.27;;;13.23;;
11037;SDS011;5572;49.540;11.932;2023-07-20T02:15:04;14.07;;;13.03;;
11037;SDS011;5572;49.540;11.932;2023-07-20T02:17:31;13.83;;;12.83;;
11037;SDS011;5572;49.540;11.932;2023-07-20T02:19:58;14.97;;;13.90;;
11037;SDS011;5572;49.540;11.932;2023-07-20T02:22:24;16.30;;;15.00;;
11037;SDS011;5572;49.540;11.932;2023-07-20T02:24:52;12.77;;;11.80;;
11037;SDS011;5572;49.540;11.932;2023-07-20T02:27:19;13.87;;;12.87;;
11037;SDS011;5572;49.540;11.932;2023-07-20T02:29:45;14.50;;;13.43;;
11037;SDS011;5572;49.540;11.932;2023-07-20T02:32:12;15.00;;;13.87;;
11037;SDS011;5572;49.540;11.932;2023-07-20T02:34:39;14.27;;;13.23;;
11037;SDS011;5572;49.540;11.932;2023-07-20T02:37:05;13.63;;;12.60;;
11037;SDS011;5572;49.540;11.932;2023-07-20T02:39:32;13.23;;;12.23;;
11037;SDS011;5572;49.540;11.932;2023-07-20T02:42:00;13.37;;;12.33;;
11037;SDS011;5572;49.540;11.932;2023-07-20T02:44:27;14.30;;;13.23;;
11037;SDS011;5572;49.540;11.932;2023-07-20T02:46:53;13.23;;;12.23;;
11037;SDS011;5572;49.540;11.932;2023-07-20T02:49:20;13.67;;;12.70;;
11037;SDS011;5572;49.540;11.932;2023-07-20T02:51:46;13.50;;;12.47;;
11037;SDS011;5572;49.540;11.932;2023-07-20T02:54:13;16.87;;;15.60;;
11037;SDS011;5572;49.540;11.932;2023-07-20T02:56:39;14.03;;;13.03;;
11037;SDS011;5572;49.540;11.932;2023-07-20T02:59:07;13.87;;;12.90;;
11037;SDS011;5572;49.540;11.932;2023-07-20T03:01:34;13.37;;;12.37;;
11037;SDS011;5572;49.540;11.932;2023-07-20T03:04:00;14.10;;;13.07;;
11037;SDS011;5572;49.540;11.932;2023-07-20T03:06:27;14.13;;;13.10;;
11037;SDS011;5572;49.540;11.932;2023-07-20T03:08:54;13.33;;;12.37;;
11037;SDS011;5572;49.540;11.932;2023-07-20T03:11:20;14.13;;;13.10;;
11037;SDS011;5572;49.540;11.932;2023-07-20T03:13:47;15.63;;;14.47;;
11037;SDS011;5572;49.540;11.932;2023-07-20T03:16:17;12.40;;;11.43;;
11037;SDS011;5572;49.540;11.932;2023-07-20T03:18:44;13.37;;;12.40;;
11037;SDS011;5572;49.540;11.932;2023-07-20T03:21:11;12.63;;;11.70;;
11037;SDS011;5572;49.540;11.932;2023-07-20T03:23:38;13.50;;;12.47;;
11037;SDS011;5572;49.540;11.932;2023-07-20T03:26:05;14.17;;;13.13;;
11037;SDS011;5572;49.540;11.932;2023-07-20T03:28:33;13.70;;;12.70;;
11037;SDS011;5572;49.540;11.932;2023-07-20T03:30:59;13.47;;;12.50;;
11037;SDS011;5572;49.540;11.932;2023-07-20T03:33:28;14.00;;;12.97;;
11037;SDS011;5572;49.540;11.932;2023-07-20T03:35:55;12.83;;;11.90;;
11037;SDS011;5572;49.540;11.932;2023-07-20T03:38:24;14.17;;;13.13;;
11037;SDS011;5572;49.540;11.932;2023-07-20T03:40:51;14.60;;;13.53;;
11037;SDS011;5572;49.540;11.932;2023-07-20T03:43:18;14.30;;;13.20;;
11037;SDS011;5572;49.540;11.932;2023-07-20T03:45:45;15.97;;;14.63;;
11037;SDS011;5572;49.540;11.932;2023-07-20T03:48:13;13.73;;;12.73;;
11037;SDS011;5572;49.540;11.932;2023-07-20T03:50:41;14.73;;;13.50;;
11037;SDS011;5572;49.540;11.932;2023-07-20T03:53:07;13.57;;;12.57;;
11037;SDS011;5572;49.540;11.932;2023-07-20T03:55:34;14.60;;;13.47;;
11037;SDS011;5572;49.540;11.932;2023-07-20T03:58:00;14.10;;;13.07;;
11037;SDS011;5572;49.540;11.932;2023-07-20T04:00:28;17.17;;;15.93;;
11037;SDS011;5572;49.540;11.932;2023-07-20T04:02:55;13.93;;;12.77;;
11037;SDS011;5572;49.540;11.932;2023-07-20T04:05:21;13.73;;;12.70;;
11037;SDS011;5572;49.540;11.932;2023-07-20T04:07:49;13.17;;;12.20;;
11037;SDS011;5572;49.540;11.932;2023-07-20T04:10:16;15.03;;;13.93;;
11037;SDS011;5572;49.540;11.932;2023-07-20T04:12:43;13.47;;;12.47;;
11037;SDS011;5572;49.540;11.932;2023-07-20T04:15:12;13.90;;;12.90;;
11037;SDS011;5572;49.540;11.932;2023-07-20T04:17:38;14.40;;;13.30;;
11037;SDS011;5572;49.540;11.932;2023-07-20T04:20:06;16.47;;;15.20;;
11037;SDS011;5572;49.540;11.932;2023-07-20T04:22:33;13.10;;;12.10;;
11037;SDS011;5572;49.540;11.932;2023-07-20T04:25:01;14.43;;;13.37;;
11037;SDS011;5572;49.540;11.932;2023-07-20T04:27:28;13.77;;;12.73;;
11037;SDS011;5572;49.540;11.932;2023-07-20T04:29:55;14.17;;;13.10;;
11037;SDS011;5572;49.540;11.932;2023-07-20T04:32:22;15.80;;;14.60;;
11037;SDS011;5572;49.540;11.932;2023-07-20T04:34:48;13.43;;;12.43;;
11037;SDS011;5572;49.540;11.932;2023-07-20T04:37:15;12.93;;;11.97;;
11037;SDS011;5572;49.540;11.932;2023-07-20T04:39:41;12.93;;;11.97;;
11037;SDS011;5572;49.540;11.932;2023-07-20T04:42:09;13.60;;;12.53;;
11037;SDS011;5572;49.540;11.932;2023-07-20T04:44:36;14.70;;;13.57;;
11037;SDS011;5572;49.540;11.932;2023-07-20T04:47:02;11.97;;;11.03;;
11037;SDS011;5572;49.540;11.932;2023-07-20T04:49:29;13.07;;;12.10;;
11037;SDS011;5572;49.540;11.932;2023-07-20T04:51:56;12.40;;;11.43;;
11037;SDS011;5572;49.540;11.932;2023-07-20T04:54:22;13.60;;;12.57;;
11037;SDS011;5572;49.540;11.932;2023-07-20T04:56:49;13.90;;;12.83;;
11037;SDS011;5572;49.540;11.932;2023-07-20T04:59:17;12.87;;;11.93;;
11037;SDS011;5572;49.540;11.932;2023-07-20T05:01:44;12.90;;;11.93;;
11037;SDS011;5572;49.540;11.932;2023-07-20T05:04:10;12.60;;;11.67;;
11037;SDS011;5572;49.540;11.932;2023-07-20T05:06:37;14.63;;;13.50;;
11037;SDS011;5572;49.540;11.932;2023-07-20T05:09:04;13.83;;;12.80;;
11037;SDS011;5572;49.540;11.932;2023-07-20T05:11:32;14.23;;;13.13;;
11037;SDS011;5572;49.540;11.932;2023-07-20T05:13:59;12.47;;;11.53;;
11037;SDS011;5572;49.540;11.932;2023-07-20T05:16:27;14.83;;;13.70;;
11037;SDS011;5572;49.540;11.932;2023-07-20T05:18:53;14.87;;;13.70;;
11037;SDS011;5572;49.540;11.932;2023-07-20T05:21:22;14.77;;;13.60;;
11037;SDS011;5572;49.540;11.932;2023-07-20T05:23:48;13.57;;;12.50;;
11037;SDS011;5572;49.540;11.932;2023-07-20T05:26:15;14.80;;;13.63;;
11037;SDS011;5572;49.540;11.932;2023-07-20T05:28:41;15.13;;;13.93;;
11037;SDS011;5572;49.540;11.932;2023-07-20T05:31:08;15.43;;;14.13;;
11037;SDS011;5572;49.540;11.932;2023-07-20T05:33:36;16.30;;;15.03;;
11037;SDS011;5572;49.540;11.932;2023-07-20T05:36:03;15.30;;;14.07;;
11037;SDS011;5572;49.540;11.932;2023-07-20T05:38:30;17.33;;;16.00;;
11037;SDS011;5572;49.540;11.932;2023-07-20T05:40:59;15.53;;;14.30;;
11037;SDS011;5572;49.540;11.932;2023-07-20T05:43:27;17.90;;;16.47;;
11037;SDS011;5572;49.540;11.932;2023-07-20T05:45:53;19.20;;;17.63;;
11037;SDS011;5572;49.540;11.932;2023-07-20T05:48:20;18.43;;;16.93;;
11037;SDS011;5572;49.540;11.932;2023-07-20T05:50:48;16.20;;;14.97;;
11037;SDS011;5572;49.540;11.932;2023-07-20T05:53:14;25.97;;;16.87;;
11037;SDS011;5572;49.540;11.932;2023-07-20T05:55:41;17.17;;;15.83;;
11037;SDS011;5572;49.540;11.932;2023-07-20T05:58:07;16.13;;;14.90;;
11037;SDS011;5572;49.540;11.932;2023-07-20T06:00:34;16.93;;;15.63;;
11037;SDS011;5572;49.540;11.932;2023-07-20T06:03:01;16.77;;;15.53;;
11037;SDS011;5572;49.540;11.932;2023-07-20T06:05:29;17.83;;;16.47;;
11037;SDS011;5572;49.540;11.932;2023-07-20T06:07:57;17.93;;;16.57;;
11037;SDS011;5572;49.540;11.932;2023-07-20T06:10:25;17.37;;;16.07;;
11037;SDS011;5572;49.540;11.932;2023-07-20T06:12:52;17.93;;;16.57;;
11037;SDS011;5572;49.540;11.932;2023-07-20T06:15:25;16.47;;;15.23;;
11037;SDS011;5572;49.540;11.932;2023-07-20T06:17:53;16.97;;;15.70;;
11037;SDS011;5572;49.540;11.932;2023-07-20T06:20:21;17.60;;;16.27;;
11037;SDS011;5572;49.540;11.932;2023-07-20T06:22:48;19.30;;;17.80;;
11037;SDS011;5572;49.540;11.932;2023-07-20T06:25:16;18.23;;;16.90;;
11037;SDS011;5572;49.540;11.932;2023-07-20T06:27:42;18.53;;;17.17;;
11037;SDS011;5572;49.540;11.932;2023-07-20T06:30:09;18.10;;;16.70;;
11037;SDS011;5572;49.540;11.932;2023-07-20T06:32:37;18.90;;;17.43;;
11037;SDS011;5572;49.540;11.932;2023-07-20T06:35:04;20.27;;;18.63;;
11037;SDS011;5572;49.540;11.932;2023-07-20T06:37:33;19.40;;;17.83;;
11037;SDS011;5572;49.540;11.932;2023-07-20T06:40:00;18.20;;;16.93;;
11037;SDS011;5572;49.540;11.932;2023-07-20T06:42:28;25.23;;;23.20;;
11037;SDS011;5572;49.540;11.932;2023-07-20T06:44:54;18.47;;;17.10;;
11037;SDS011;5572;49.540;11.932;2023-07-20T06:47:21;18.93;;;17.53;;
11037;SDS011;5572;49.540;11.932;2023-07-20T06:49:47;20.27;;;18.73;;
11037;SDS011;5572;49.540;11.932;2023-07-20T06:52:14;23.90;;;22.13;;
11037;SDS011;5572;49.540;11.932;2023-07-20T06:54:41;20.33;;;18.90;;
11037;SDS011;5572;49.540;11.932;2023-07-20T06:57:08;18.13;;;16.87;;
11037;SDS011;5572;49.540;11.932;2023-07-20T06:59:36;19.07;;;17.73;;
11037;SDS011;5572;49.540;11.932;2023-07-20T07:02:02;19.80;;;18.37;;
11037;SDS011;5572;49.540;11.932;2023-07-20T07:04:29;20.13;;;18.60;;
11037;SDS011;5572;49.540;11.932;2023-07-20T07:06:56;40.97;;;20.90;;
11037;SDS011;5572;49.540;11.932;2023-07-20T07:09:22;19.37;;;18.03;;
11037;SDS011;5572;49.540;11.932;2023-07-20T07:11:49;21.33;;;19.60;;
11037;SDS011;5572;49.540;11.932;2023-07-20T07:14:18;18.70;;;17.43;;
11037;SDS011;5572;49.540;11.932;2023-07-20T07:16:47;19.50;;;18.13;;
11037;SDS011;5572;49.540;11.932;2023-07-20T07:19:14;18.93;;;17.67;;
11037;SDS011;5572;49.540;11.932;2023-07-20T07:21:40;20.57;;;19.10;;
11037;SDS011;5572;49.540;11.932;2023-07-20T07:24:07;19.33;;;18.00;;
11037;SDS011;5572;49.540;11.932;2023-07-20T07:26:35;19.77;;;18.40;;
11037;SDS011;5572;49.540;11.932;2023-07-20T07:29:01;18.10;;;16.87;;
11037;SDS011;5572;49.540;11.932;2023-07-20T07:31:28;19.00;;;17.67;;
11037;SDS011;5572;49.540;11.932;2023-07-20T07:33:56;18.50;;;17.00;;
11037;SDS011;5572;49.540;11.932;2023-07-20T07:36:23;21.83;;;20.00;;
11037;SDS011;5572;49.540;11.932;2023-07-20T07:38:50;21.97;;;20.37;;
11037;SDS011;5572;49.540;11.932;2023-07-20T07:41:17;20.77;;;19.30;;
11037;SDS011;5572;49.540;11.932;2023-07-20T07:43:43;19.63;;;18.20;;
11037;SDS011;5572;49.540;11.932;2023-07-20T07:46:10;18.20;;;16.87;;
11037;SDS011;5572;49.540;11.932;2023-07-20T07:48:36;18.27;;;17.03;;
11037;SDS011;5572;49.540;11.932;2023-07-20T07:51:04;19.33;;;17.90;;
11037;SDS011;5572;49.540;11.932;2023-07-20T07:53:31;19.67;;;18.17;;
11037;SDS011;5572;49.540;11.932;2023-07-20T07:55:58;18.73;;;17.43;;
11037;SDS011;5572;49.540;11.932;2023-07-20T07:58:25;18.73;;;17.43;;
11037;SDS011;5572;49.540;11.932;2023-07-20T08:00:52;22.40;;;20.70;;
11037;SDS011;5572;49.540;11.932;2023-07-20T08:03:18;19.93;;;18.57;;
11037;SDS011;5572;49.540;11.932;2023-07-20T08:05:45;20.20;;;18.67;;
11037;SDS011;5572;49.540;11.932;2023-07-20T08:08:13;19.70;;;18.30;;
11037;SDS011;5572;49.540;11.932;2023-07-20T08:10:39;17.07;;;15.90;;
11037;SDS011;5572;49.540;11.932;2023-07-20T08:13:06;17.83;;;16.53;;
11037;SDS011;5572;49.540;11.932;2023-07-20T08:15:32;17.90;;;16.63;;
11037;SDS011;5572;49.540;11.932;2023-07-20T08:17:59;16.90;;;15.80;;
11037;SDS011;5572;49.540;11.932;2023-07-20T08:20:25;19.20;;;17.77;;
11037;SDS011;5572;49.540;11.932;2023-07-20T08:22:52;18.70;;;17.37;;
11037;SDS011;5572;49.540;11.932;2023-07-20T08:25:21;19.17;;;17.80;;
11037;SDS011;5572;49.540;11.932;2023-07-20T08:27:48;18.13;;;16.87;;
11037;SDS011;5572;49.540;11.932;2023-07-20T08:30:14;19.40;;;18.00;;
11037;SDS011;5572;49.540;11.932;2023-07-20T08:32:41;20.57;;;19.17;;
11037;SDS011;5572;49.540;11.932;2023-07-20T08:35:08;20.80;;;19.30;;
11037;SDS011;5572;49.540;11.932;2023-07-20T08:37:35;20.30;;;18.90;;
11037;SDS011;5572;49.540;11.932;2023-07-20T08:40:01;23.23;;;21.57;;
11037;SDS011;5572;49.540;11.932;2023-07-20T08:42:34;19.33;;;17.90;;
11037;SDS011;5572;49.540;11.932;2023-07-20T08:45:02;20.07;;;18.70;;
11037;SDS011;5572;49.540;11.932;2023-07-20T08:47:34;17.73;;;16.57;;
11037;SDS011;5572;49.540;11.932;2023-07-20T08:50:01;23.33;;;21.60;;
11037;SDS011;5572;49.540;11.932;2023-07-20T08:52:32;20.53;;;19.07;;
11037;SDS011;5572;49.540;11.932;2023-07-20T08:55:00;21.77;;;20.17;;
11037;SDS011;5572;49.540;11.932;2023-07-20T08:57:28;21.53;;;20.07;;
11037;SDS011;5572;49.540;11.932;2023-07-20T09:00:00;20.07;;;18.70;;
11037;SDS011;5572;49.540;11.932;2023-07-20T09:02:31;19.37;;;18.00;;
11037;SDS011;5572;49.540;11.932;2023-07-20T09:05:04;18.67;;;16.93;;
11037;SDS011;5572;49.540;11.932;2023-07-20T09:07:31;20.07;;;18.67;;
11037;SDS011;5572;49.540;11.932;2023-07-20T09:10:00;22.23;;;20.63;;
11037;SDS011;5572;49.540;11.932;2023-07-20T09:12:30;19.97;;;18.40;;
11037;SDS011;5572;49.540;11.932;2023-07-20T09:14:57;22.13;;;20.50;;
11037;SDS011;5572;49.540;11.932;2023-07-20T09:17:26;18.70;;;17.50;;
11037;SDS011;5572;49.540;11.932;2023-07-20T09:19:53;21.57;;;20.03;;
11037;SDS011;5572;49.540;11.932;2023-07-20T09:22:19;23.50;;;21.70;;
11037;SDS011;5572;49.540;11.932;2023-07-20T09:24:46;20.33;;;18.90;;
11037;SDS011;5572;49.540;11.932;2023-07-20T09:27:13;22.00;;;20.53;;
11037;SDS011;5572;49.540;11.932;2023-07-20T09:29:47;21.23;;;19.80;;
11037;SDS011;5572;49.540;11.932;2023-07-20T09:32:14;24.73;;;22.93;;
11037;SDS011;5572;49.540;11.932;2023-07-20T09:34:46;19.77;;;18.40;;
11037;SDS011;5572;49.540;11.932;2023-07-20T09:37:12;21.07;;;19.63;;
11037;SDS011;5572;49.540;11.932;2023-07-20T09:39:42;21.63;;;19.83;;
11037;SDS011;5572;49.540;11.932;2023-07-20T09:42:10;23.37;;;21.67;;
11037;SDS011;5572;49.540;11.932;2023-07-20T09:44:38;19.60;;;18.20;;
11037;SDS011;5572;49.540;11.932;2023-07-20T09:47:04;22.93;;;21.20;;
11037;SDS011;5572;49.540;11.932;2023-07-20T09:49:31;22.30;;;20.63;;
11037;SDS011;5572;49.540;11.932;2023-07-20T09:51:59;21.73;;;20.23;;
11037;SDS011;5572;49.540;11.932;2023-07-20T09:54:28;22.10;;;20.53;;
11037;SDS011;5572;49.540;11.932;2023-07-20T09:56:55;21.63;;;20.10;;
11037;SDS011;5572;49.540;11.932;2023-07-20T09:59:22;20.77;;;19.23;;
11037;SDS011;5572;49.540;11.932;2023-07-20T10:01:49;19.40;;;18.03;;
11037;SDS011;5572;49.540;11.932;2023-07-20T10:04:18;19.90;;;18.50;;
11037;SDS011;5572;49.540;11.932;2023-07-20T10:06:47;20.57;;;19.10;;
11037;SDS011;5572;49.540;11.932;2023-07-20T10:09:18;23.80;;;22.07;;
11037;SDS011;5572;49.540;11.932;2023-07-20T10:11:48;18.97;;;17.73;;
11037;SDS011;5572;49.540;11.932;2023-07-20T10:14:20;20.70;;;19.20;;
11037;SDS011;5572;49.540;11.932;2023-07-20T10:16:49;21.77;;;20.03;;
11037;SDS011;5572;49.540;11.932;2023-07-20T10:19:19;21.67;;;20.20;;
11037;SDS011;5572;49.540;11.932;2023-07-20T10:21:51;21.83;;;20.37;;
11037;SDS011;5572;49.540;11.932;2023-07-20T10:24:24;21.33;;;19.87;;
11037;SDS011;5572;49.540;11.932;2023-07-20T10:26:51;20.07;;;18.67;;
11037;SDS011;5572;49.540;11.932;2023-07-20T10:29:18;19.47;;;18.23;;
11037;SDS011;5572;49.540;11.932;2023-07-20T10:31:45;19.93;;;18.50;;
11037;SDS011;5572;49.540;11.932;2023-07-20T10:34:12;19.13;;;17.73;;
11037;SDS011;5572;49.540;11.932;2023-07-20T10:36:43;19.23;;;17.83;;
11037;SDS011;5572;49.540;11.932;2023-07-20T10:39:13;20.73;;;19.20;;
11037;SDS011;5572;49.540;11.932;2023-07-20T10:41:50;20.67;;;19.17;;
11037;SDS011;5572;49.540;11.932;2023-07-20T10:44:19;19.50;;;18.10;;
11037;SDS011;5572;49.540;11.932;2023-07-20T10:46:46;18.43;;;17.20;;
11037;SDS011;5572;49.540;11.932;2023-07-20T10:49:13;21.60;;;20.07;;
11037;SDS011;5572;49.540;11.932;2023-07-20T10:51:41;22.50;;;20.93;;
11037;SDS011;5572;49.540;11.932;2023-07-20T10:54:09;20.47;;;19.10;;
11037;SDS011;5572;49.540;11.932;2023-07-20T10:56:57;21.87;;;20.30;;
11037;SDS011;5572;49.540;11.932;2023-07-20T10:59:45;22.47;;;20.87;;
11037;SDS011;5572;49.540;11.932;2023-07-20T11:02:13;22.80;;;21.17;;
11037;SDS011;5572;49.540;11.932;2023-07-20T11:04:45;22.27;;;20.67;;
11037;SDS011;5572;49.540;11.932;2023-07-20T11:07:14;23.60;;;21.90;;
11037;SDS011;5572;49.540;11.932;2023-07-20T11:09:42;20.90;;;19.47;;
11037;SDS011;5572;49.540;11.932;2023-07-20T11:12:09;22.83;;;21.23;;
11037;SDS011;5572;49.540;11.932;2023-07-20T11:14:39;23.53;;;21.87;;
11037;SDS011;5572;49.540;11.932;2023-07-20T11:17:15;23.47;;;21.83;;
11037;SDS011;5572;49.540;11.932;2023-07-20T11:19:47;21.40;;;19.90;;
11037;SDS011;5572;49.540;11.932;2023-07-20T11:22:15;24.37;;;22.60;;
11037;SDS011;5572;49.540;11.932;2023-07-20T11:24:43;23.53;;;21.90;;
11037;SDS011;5572;49.540;11.932;2023-07-20T11:27:09;25.17;;;23.43;;
11037;SDS011;5572;49.540;11.932;2023-07-20T11:29:37;23.57;;;22.00;;
11037;SDS011;5572;49.540;11.932;2023-07-20T11:32:04;24.87;;;23.17;;
11037;SDS011;5572;49.540;11.932;2023-07-20T11:34:32;22.50;;;20.97;;
11037;SDS011;5572;49.540;11.932;2023-07-20T11:37:00;23.17;;;21.60;;
11037;SDS011;5572;49.540;11.932;2023-07-20T11:39:27;22.10;;;20.53;;
11037;SDS011;5572;49.540;11.932;2023-07-20T11:41:56;22.20;;;20.70;;
11037;SDS011;5572;49.540;11.932;2023-07-20T11:44:23;22.50;;;20.90;;
11037;SDS011;5572;49.540;11.932;2023-07-20T11:46:59;21.03;;;19.53;;
11037;SDS011;5572;49.540;11.932;2023-07-20T11:49:27;20.77;;;19.27;;
11037;SDS011;5572;49.540;11.932;2023-07-20T11:51:55;20.70;;;19.23;;
11037;SDS011;5572;49.540;11.932;2023-07-20T11:54:22;20.73;;;19.23;;
11037;SDS011;5572;49.540;11.932;2023-07-20T11:56:53;23.37;;;21.57;;
11037;SDS011;5572;49.540;11.932;2023-07-20T11:59:20;23.67;;;21.87;;
11037;SDS011;5572;49.540;11.932;2023-07-20T12:01:47;23.23;;;21.57;;
11037;SDS011;5572;49.540;11.932;2023-07-20T12:04:14;25.93;;;24.13;;
11037;SDS011;5572;49.540;11.932;2023-07-20T12:06:40;23.30;;;21.67;;
11037;SDS011;5572;49.540;11.932;2023-07-20T12:09:12;22.87;;;21.27;;
11037;SDS011;5572;49.540;11.932;2023-07-20T12:11:40;24.60;;;22.87;;
11037;SDS011;5572;49.540;11.932;2023-07-20T12:14:07;23.50;;;21.93;;
11037;SDS011;5572;49.540;11.932;2023-07-20T12:16:35;22.10;;;20.73;;
11037;SDS011;5572;49.540;11.932;2023-07-20T12:19:03;23.00;;;21.50;;
11037;SDS011;5572;49.540;11.932;2023-07-20T12:21:31;23.37;;;21.80;;
11037;SDS011;5572;49.540;11.932;2023-07-20T12:24:00;48.33;;;43.83;;
11037;SDS011;5572;49.540;11.932;2023-07-20T12:26:28;23.00;;;21.53;;
11037;SDS011;5572;49.540;11.932;2023-07-20T12:28:55;22.20;;;20.73;;
11037;SDS011;5572;49.540;11.932;2023-07-20T12:31:22;23.53;;;21.97;;
11037;SDS011;5572;49.540;11.932;2023-07-20T12:33:49;23.00;;;21.47;;
11037;SDS011;5572;49.540;11.932;2023-07-20T12:36:16;22.73;;;21.20;;
11037;SDS011;5572;49.540;11.932;2023-07-20T12:38:43;22.00;;;20.63;;
11037;SDS011;5572;49.540;11.932;2023-07-20T12:41:11;24.03;;;22.43;;
11037;SDS011;5572;49.540;11.932;2023-07-20T12:43:40;22.97;;;21.53;;
11037;SDS011;5572;49.540;11.932;2023-07-20T12:46:07;25.37;;;23.70;;
11037;SDS011;5572;49.540;11.932;2023-07-20T12:48:34;23.27;;;21.73;;
11037;SDS011;5572;49.540;11.932;2023-07-20T12:51:02;24.37;;;22.80;;
11037;SDS011;5572;49.540;11.932;2023-07-20T12:53:30;24.23;;;22.60;;
11037;SDS011;5572;49.540;11.932;2023-07-20T12:55:57;23.87;;;22.30;;
11037;SDS011;5572;49.540;11.932;2023-07-20T12:58:24;24.50;;;22.83;;
11037;SDS011;5572;49.540;11.932;2023-07-20T13:00:52;21.40;;;20.03;;
11037;SDS011;5572;49.540;11.932;2023-07-20T13:03:19;24.90;;;23.27;;
11037;SDS011;5572;49.540;11.932;2023-07-20T13:05:46;22.77;;;21.27;;
11037;SDS011;5572;49.540;11.932;2023-07-20T13:08:13;22.90;;;21.33;;
11037;SDS011;5572;49.540;11.932;2023-07-20T13:10:40;24.53;;;22.93;;
11037;SDS011;5572;49.540;11.932;2023-07-20T13:13:07;23.70;;;22.13;;
11037;SDS011;5572;49.540;11.932;2023-07-20T13:15:40;24.37;;;22.67;;
11037;SDS011;5572;49.540;11.932;2023-07-20T13:18:09;23.90;;;22.40;;
11037;SDS011;5572;49.540;11.932;2023-07-20T13:20:36;23.87;;;22.30;;
11037;SDS011;5572;49.540;11.932;2023-07-20T13:23:02;23.33;;;21.80;;
11037;SDS011;5572;49.540;11.932;2023-07-20T13:25:29;22.23;;;20.73;;
11037;SDS011;5572;49.540;11.932;2023-07-20T13:27:56;23.57;;;22.00;;
11037;SDS011;5572;49.540;11.932;2023-07-20T13:30:22;23.37;;;21.73;;
11037;SDS011;5572;49.540;11.932;2023-07-20T13:32:49;22.00;;;20.50;;
11037;SDS011;5572;49.540;11.932;2023-07-20T13:35:17;22.50;;;21.00;;
11037;SDS011;5572;49.540;11.932;2023-07-20T13:37:43;22.93;;;21.43;;
11037;SDS011;5572;49.540;11.932;2023-07-20T13:40:10;22.53;;;21.07;;
11037;SDS011;5572;49.540;11.932;2023-07-20T13:42:38;23.07;;;21.50;;
11037;SDS011;5572;49.540;11.932;2023-07-20T13:45:05;23.53;;;21.97;;
11037;SDS011;5572;49.540;11.932;2023-07-20T13:47:32;23.03;;;21.53;;
11037;SDS011;5572;49.540;11.932;2023-07-20T13:49:59;23.87;;;22.27;;
11037;SDS011;5572;49.540;11.932;2023-07-20T13:52:27;29.37;;;27.00;;
11037;SDS011;5572;49.540;11.932;2023-07-20T13:54:54;22.13;;;20.67;;
11037;SDS011;5572;49.540;11.932;2023-07-20T13:57:20;21.83;;;20.33;;
11037;SDS011;5572;49.540;11.932;2023-07-20T13:59:47;22.53;;;21.03;;
11037;SDS011;5572;49.540;11.932;2023-07-20T14:02:13;23.50;;;21.77;;
11037;SDS011;5572;49.540;11.932;2023-07-20T14:04:40;21.53;;;20.03;;
11037;SDS011;5572;49.540;11.932;2023-07-20T14:07:07;22.23;;;20.67;;
11037;SDS011;5572;49.540;11.932;2023-07-20T14:09:35;21.23;;;19.73;;
11037;SDS011;5572;49.540;11.932;2023-07-20T14:12:01;21.00;;;19.47;;
11037;SDS011;5572;49.540;11.932;2023-07-20T14:14:28;22.13;;;20.53;;
11037;SDS011;5572;49.540;11.932;2023-07-20T14:16:55;23.07;;;21.43;;
11037;SDS011;5572;49.540;11.932;2023-07-20T14:19:22;24.00;;;22.37;;
11037;SDS011;5572;49.540;11.932;2023-07-20T14:21:49;21.70;;;20.23;;
11037;SDS011;5572;49.540;11.932;2023-07-20T14:24:15;24.43;;;22.60;;